sensor_id;sensor_type;location;lat;lon;timestamp;P1;durP1;ratioP1;P2;durP2;ratioP2
5507;SDS011;2776;51.046;6.772;2023-08-24T00:01:11;2.93;;;2.40;;
5507;SDS011;2776;51.046;6.772;2023-08-24T00:03:39;5.47;;;2.50;;
5507;SDS011;2776;51.046;6.772;2023-08-24T00:06:06;8.17;;;3.07;;
5507;SDS011;2776;51.046;6.772;2023-08-24T00:08:32;4.57;;;2.13;;
5507;SDS011;2776;51.046;6.772;2023-08-24T00:10:59;2.80;;;2.50;;
5507;SDS011;2776;51.046;6.772;2023-08-24T00:13:26;7.37;;;2.40;;
5507;SDS011;2776;51.046;6.772;2023-08-24T00:15:53;7.67;;;2.77;;
5507;SDS011;2776;51.046;6.772;2023-08-24T00:18:21;6.30;;;2.70;;
5507;SDS011;2776;51.046;6.772;2023-08-24T00:20:48;3.60;;;2.60;;
5507;SDS011;2776;51.046;6.772;2023-08-24T00:23:15;5.40;;;2.87;;
5507;SDS011;2776;51.046;6.772;2023-08-24T00:25:43;7.67;;;2.77;;
5507;SDS011;2776;51.046;6.772;2023-08-24T00:28:10;4.70;;;2.73;;
5507;SDS011;2776;51.046;6.772;2023-08-24T00:30:36;6.07;;;2.87;;
5507;SDS011;2776;51.046;6.772;2023-08-24T00:33:03;7.40;;;3.07;;
5507;SDS011;2776;51.046;6.772;2023-08-24T00:35:31;7.03;;;2.90;;
5507;SDS011;2776;51.046;6.772;2023-08-24T00:37:58;4.90;;;2.60;;
5507;SDS011;2776;51.046;6.772;2023-08-24T00:40:25;4.83;;;3.00;;
5507;SDS011;2776;51.046;6.772;2023-08-24T00:42:52;6.80;;;2.70;;
5507;SDS011;2776;51.046;6.772;2023-08-24T00:45:18;5.93;;;2.87;;
5507;SDS011;2776;51.046;6.772;2023-08-24T00:47:46;2.57;;;2.37;;
5507;SDS011;2776;51.046;6.772;2023-08-24T00:50:14;4.80;;;2.57;;
5507;SDS011;2776;51.046;6.772;2023-08-24T00:52:44;5.03;;;2.83;;
5507;SDS011;2776;51.046;6.772;2023-08-24T00:55:13;4.03;;;2.77;;
5507;SDS011;2776;51.046;6.772;2023-08-24T00:57:40;3.97;;;2.77;;
5507;SDS011;2776;51.046;6.772;2023-08-24T01:00:07;4.53;;;2.93;;
5507;SDS011;2776;51.046;6.772;2023-08-24T01:02:36;6.13;;;3.07;;
5507;SDS011;2776;51.046;6.772;2023-08-24T01:05:03;4.23;;;2.90;;
5507;SDS011;2776;51.046;6.772;2023-08-24T01:07:31;4.03;;;2.60;;
5507;SDS011;2776;51.046;6.772;2023-08-24T01:09:59;3.00;;;2.77;;
5507;SDS011;2776;51.046;6.772;2023-08-24T01:12:28;3.90;;;2.73;;
5507;SDS011;2776;51.046;6.772;2023-08-24T01:15:04;4.93;;;2.83;;
5507;SDS011;2776;51.046;6.772;2023-08-24T01:17:35;5.53;;;2.90;;
5507;SDS011;2776;51.046;6.772;2023-08-24T01:20:04;4.43;;;2.80;;
5507;SDS011;2776;51.046;6.772;2023-08-24T01:22:33;9.17;;;3.20;;
5507;SDS011;2776;51.046;6.772;2023-08-24T01:25:13;5.77;;;2.93;;
5507;SDS011;2776;51.046;6.772;2023-08-24T01:27:44;5.87;;;3.00;;
5507;SDS011;2776;51.046;6.772;2023-08-24T01:30:13;5.67;;;3.00;;
5507;SDS011;2776;51.046;6.772;2023-08-24T01:32:40;4.33;;;2.60;;
5507;SDS011;2776;51.046;6.772;2023-08-24T01:35:08;5.87;;;3.10;;
5507;SDS011;2776;51.046;6.772;2023-08-24T01:37:36;4.20;;;2.47;;
5507;SDS011;2776;51.046;6.772;2023-08-24T01:40:03;2.80;;;2.60;;
5507;SDS011;2776;51.046;6.772;2023-08-24T01:42:35;5.17;;;2.83;;
5507;SDS011;2776;51.046;6.772;2023-08-24T01:45:05;5.23;;;3.30;;
5507;SDS011;2776;51.046;6.772;2023-08-24T01:47:33;4.13;;;3.13;;
5507;SDS011;2776;51.046;6.772;2023-08-24T01:50:01;4.57;;;3.00;;
5507;SDS011;2776;51.046;6.772;2023-08-24T01:52:29;5.80;;;2.70;;
5507;SDS011;2776;51.046;6.772;2023-08-24T01:54:57;4.27;;;2.90;;
5507;SDS011;2776;51.046;6.772;2023-08-24T01:57:24;11.47;;;3.00;;
5507;SDS011;2776;51.046;6.772;2023-08-24T01:59:51;6.17;;;3.20;;
5507;SDS011;2776;51.046;6.772;2023-08-24T02:02:20;7.10;;;3.33;;
5507;SDS011;2776;51.046;6.772;2023-08-24T02:04:47;6.03;;;2.80;;
5507;SDS011;2776;51.046;6.772;2023-08-24T02:07:13;3.67;;;2.70;;
5507;SDS011;2776;51.046;6.772;2023-08-24T02:09:40;2.93;;;2.60;;
5507;SDS011;2776;51.046;6.772;2023-08-24T02:12:07;2.83;;;2.53;;
5507;SDS011;2776;51.046;6.772;2023-08-24T02:14:34;4.20;;;2.87;;
5507;SDS011;2776;51.046;6.772;2023-08-24T02:17:00;3.17;;;2.43;;
5507;SDS011;2776;51.046;6.772;2023-08-24T02:19:29;4.87;;;2.73;;
5507;SDS011;2776;51.046;6.772;2023-08-24T02:21:56;4.60;;;3.03;;
5507;SDS011;2776;51.046;6.772;2023-08-24T02:24:23;6.27;;;2.93;;
5507;SDS011;2776;51.046;6.772;2023-08-24T02:26:50;4.73;;;2.83;;
5507;SDS011;2776;51.046;6.772;2023-08-24T02:29:16;6.60;;;3.60;;
5507;SDS011;2776;51.046;6.772;2023-08-24T02:31:43;5.50;;;2.70;;
5507;SDS011;2776;51.046;6.772;2023-08-24T02:34:10;4.57;;;3.20;;
5507;SDS011;2776;51.046;6.772;2023-08-24T02:36:38;4.47;;;3.30;;
5507;SDS011;2776;51.046;6.772;2023-08-24T02:39:05;5.80;;;2.87;;
5507;SDS011;2776;51.046;6.772;2023-08-24T02:41:32;3.87;;;2.70;;
5507;SDS011;2776;51.046;6.772;2023-08-24T02:44:00;4.50;;;2.70;;
5507;SDS011;2776;51.046;6.772;2023-08-24T02:46:27;3.03;;;2.80;;
5507;SDS011;2776;51.046;6.772;2023-08-24T02:48:53;2.67;;;2.47;;
5507;SDS011;2776;51.046;6.772;2023-08-24T02:51:21;6.80;;;3.13;;
5507;SDS011;2776;51.046;6.772;2023-08-24T02:53:49;3.93;;;3.00;;
5507;SDS011;2776;51.046;6.772;2023-08-24T02:56:16;4.53;;;3.03;;
5507;SDS011;2776;51.046;6.772;2023-08-24T02:58:43;5.63;;;3.80;;
5507;SDS011;2776;51.046;6.772;2023-08-24T03:01:10;4.30;;;2.93;;
5507;SDS011;2776;51.046;6.772;2023-08-24T03:03:36;5.80;;;3.20;;
5507;SDS011;2776;51.046;6.772;2023-08-24T03:06:04;4.57;;;3.53;;
5507;SDS011;2776;51.046;6.772;2023-08-24T03:08:32;8.17;;;3.13;;
5507;SDS011;2776;51.046;6.772;2023-08-24T03:11:01;6.50;;;3.20;;
5507;SDS011;2776;51.046;6.772;2023-08-24T03:13:28;6.73;;;3.53;;
5507;SDS011;2776;51.046;6.772;2023-08-24T03:15:56;5.73;;;3.30;;
5507;SDS011;2776;51.046;6.772;2023-08-24T03:18:24;5.70;;;3.23;;
5507;SDS011;2776;51.046;6.772;2023-08-24T03:20:51;7.00;;;3.47;;
5507;SDS011;2776;51.046;6.772;2023-08-24T03:23:17;5.57;;;3.00;;
5507;SDS011;2776;51.046;6.772;2023-08-24T03:25:44;6.70;;;3.40;;
5507;SDS011;2776;51.046;6.772;2023-08-24T03:28:12;6.07;;;3.43;;
5507;SDS011;2776;51.046;6.772;2023-08-24T03:30:44;5.40;;;3.23;;
5507;SDS011;2776;51.046;6.772;2023-08-24T03:33:12;6.13;;;3.50;;
5507;SDS011;2776;51.046;6.772;2023-08-24T03:35:39;6.77;;;3.07;;
5507;SDS011;2776;51.046;6.772;2023-08-24T03:38:06;4.07;;;3.50;;
5507;SDS011;2776;51.046;6.772;2023-08-24T03:40:33;4.63;;;3.20;;
5507;SDS011;2776;51.046;6.772;2023-08-24T03:43:00;5.20;;;3.40;;
5507;SDS011;2776;51.046;6.772;2023-08-24T03:45:28;5.27;;;3.30;;
5507;SDS011;2776;51.046;6.772;2023-08-24T03:47:55;6.53;;;3.07;;
5507;SDS011;2776;51.046;6.772;2023-08-24T03:50:22;5.67;;;3.43;;
5507;SDS011;2776;51.046;6.772;2023-08-24T03:52:49;3.60;;;3.30;;
5507;SDS011;2776;51.046;6.772;2023-08-24T03:55:16;6.13;;;3.50;;
5507;SDS011;2776;51.046;6.772;2023-08-24T03:57:43;8.17;;;3.40;;
5507;SDS011;2776;51.046;6.772;2023-08-24T04:00:10;5.63;;;3.37;;
5507;SDS011;2776;51.046;6.772;2023-08-24T04:02:40;6.80;;;3.40;;
5507;SDS011;2776;51.046;6.772;2023-08-24T04:05:07;5.23;;;3.30;;
5507;SDS011;2776;51.046;6.772;2023-08-24T04:07:34;4.07;;;2.93;;
5507;SDS011;2776;51.046;6.772;2023-08-24T04:10:03;6.93;;;3.40;;
5507;SDS011;2776;51.046;6.772;2023-08-24T04:12:30;7.43;;;4.00;;
5507;SDS011;2776;51.046;6.772;2023-08-24T04:14:57;7.17;;;4.10;;
5507;SDS011;2776;51.046;6.772;2023-08-24T04:17:24;5.10;;;3.73;;
5507;SDS011;2776;51.046;6.772;2023-08-24T04:19:52;7.23;;;4.30;;
5507;SDS011;2776;51.046;6.772;2023-08-24T04:22:19;5.93;;;4.00;;
5507;SDS011;2776;51.046;6.772;2023-08-24T04:24:45;5.70;;;3.90;;
5507;SDS011;2776;51.046;6.772;2023-08-24T04:27:12;8.23;;;3.57;;
5507;SDS011;2776;51.046;6.772;2023-08-24T04:29:39;4.93;;;3.80;;
5507;SDS011;2776;51.046;6.772;2023-08-24T04:32:06;9.53;;;3.93;;
5507;SDS011;2776;51.046;6.772;2023-08-24T04:34:33;6.57;;;4.40;;
5507;SDS011;2776;51.046;6.772;2023-08-24T04:37:01;6.80;;;4.77;;
5507;SDS011;2776;51.046;6.772;2023-08-24T04:39:28;6.97;;;4.63;;
5507;SDS011;2776;51.046;6.772;2023-08-24T04:41:55;8.43;;;4.80;;
5507;SDS011;2776;51.046;6.772;2023-08-24T04:44:22;7.47;;;5.50;;
5507;SDS011;2776;51.046;6.772;2023-08-24T04:46:49;8.73;;;5.37;;
5507;SDS011;2776;51.046;6.772;2023-08-24T04:49:15;7.13;;;5.07;;
5507;SDS011;2776;51.046;6.772;2023-08-24T04:51:42;5.53;;;4.77;;
5507;SDS011;2776;51.046;6.772;2023-08-24T04:54:10;9.03;;;5.37;;
5507;SDS011;2776;51.046;6.772;2023-08-24T04:56:37;7.30;;;5.60;;
5507;SDS011;2776;51.046;6.772;2023-08-24T04:59:04;6.23;;;5.20;;
5507;SDS011;2776;51.046;6.772;2023-08-24T05:01:32;8.67;;;6.37;;
5507;SDS011;2776;51.046;6.772;2023-08-24T05:03:59;13.33;;;6.43;;
5507;SDS011;2776;51.046;6.772;2023-08-24T05:06:26;12.33;;;6.83;;
5507;SDS011;2776;51.046;6.772;2023-08-24T05:08:53;9.47;;;6.80;;
5507;SDS011;2776;51.046;6.772;2023-08-24T05:11:22;8.97;;;6.93;;
5507;SDS011;2776;51.046;6.772;2023-08-24T05:13:51;9.82;;;7.35;;
5507;SDS011;2776;51.046;6.772;2023-08-24T05:16:17;8.53;;;6.70;;
5507;SDS011;2776;51.046;6.772;2023-08-24T05:18:44;8.20;;;5.90;;
5507;SDS011;2776;51.046;6.772;2023-08-24T05:21:11;8.82;;;6.68;;
5507;SDS011;2776;51.046;6.772;2023-08-24T05:23:38;11.27;;;6.80;;
5507;SDS011;2776;51.046;6.772;2023-08-24T05:26:05;9.15;;;6.47;;
5507;SDS011;2776;51.046;6.772;2023-08-24T05:28:33;8.73;;;6.87;;
5507;SDS011;2776;51.046;6.772;2023-08-24T05:30:59;8.82;;;6.28;;
5507;SDS011;2776;51.046;6.772;2023-08-24T05:33:26;10.20;;;6.70;;
5507;SDS011;2776;51.046;6.772;2023-08-24T05:35:56;8.82;;;6.75;;
5507;SDS011;2776;51.046;6.772;2023-08-24T05:38:23;7.78;;;6.50;;
5507;SDS011;2776;51.046;6.772;2023-08-24T05:40:50;7.60;;;6.90;;
5507;SDS011;2776;51.046;6.772;2023-08-24T05:43:17;6.93;;;6.28;;
5507;SDS011;2776;51.046;6.772;2023-08-24T05:45:45;9.40;;;6.47;;
5507;SDS011;2776;51.046;6.772;2023-08-24T05:48:12;8.52;;;6.97;;
5507;SDS011;2776;51.046;6.772;2023-08-24T05:50:42;9.93;;;7.38;;
5507;SDS011;2776;51.046;6.772;2023-08-24T05:53:09;8.50;;;7.60;;
5507;SDS011;2776;51.046;6.772;2023-08-24T05:55:35;9.10;;;7.13;;
5507;SDS011;2776;51.046;6.772;2023-08-24T05:58:03;8.33;;;6.93;;
5507;SDS011;2776;51.046;6.772;2023-08-24T06:00:30;9.63;;;7.72;;
5507;SDS011;2776;51.046;6.772;2023-08-24T06:02:59;10.30;;;6.72;;
5507;SDS011;2776;51.046;6.772;2023-08-24T06:05:26;10.13;;;7.00;;
5507;SDS011;2776;51.046;6.772;2023-08-24T06:07:52;9.25;;;6.72;;
5507;SDS011;2776;51.046;6.772;2023-08-24T06:10:19;7.53;;;6.75;;
5507;SDS011;2776;51.046;6.772;2023-08-24T06:12:47;10.13;;;6.43;;
5507;SDS011;2776;51.046;6.772;2023-08-24T06:15:13;12.32;;;6.97;;
5507;SDS011;2776;51.046;6.772;2023-08-24T06:17:41;7.40;;;6.70;;
5507;SDS011;2776;51.046;6.772;2023-08-24T06:20:10;11.90;;;7.30;;
5507;SDS011;2776;51.046;6.772;2023-08-24T06:22:38;11.63;;;6.80;;
5507;SDS011;2776;51.046;6.772;2023-08-24T06:25:05;9.48;;;7.05;;
5507;SDS011;2776;51.046;6.772;2023-08-24T06:27:33;7.78;;;7.07;;
5507;SDS011;2776;51.046;6.772;2023-08-24T06:30:00;8.35;;;7.00;;
5507;SDS011;2776;51.046;6.772;2023-08-24T06:32:28;11.50;;;6.65;;
5507;SDS011;2776;51.046;6.772;2023-08-24T06:34:55;8.75;;;6.72;;
5507;SDS011;2776;51.046;6.772;2023-08-24T06:37:23;9.45;;;6.07;;
5507;SDS011;2776;51.046;6.772;2023-08-24T06:39:50;8.98;;;6.57;;
5507;SDS011;2776;51.046;6.772;2023-08-24T06:42:17;9.25;;;6.55;;
5507;SDS011;2776;51.046;6.772;2023-08-24T06:44:43;7.22;;;6.25;;
5507;SDS011;2776;51.046;6.772;2023-08-24T06:47:10;7.43;;;6.07;;
5507;SDS011;2776;51.046;6.772;2023-08-24T06:49:37;7.25;;;6.55;;
5507;SDS011;2776;51.046;6.772;2023-08-24T06:52:04;6.53;;;5.90;;
5507;SDS011;2776;51.046;6.772;2023-08-24T06:54:32;9.52;;;6.07;;
5507;SDS011;2776;51.046;6.772;2023-08-24T06:56:59;7.13;;;6.30;;
5507;SDS011;2776;51.046;6.772;2023-08-24T06:59:26;8.68;;;6.53;;
5507;SDS011;2776;51.046;6.772;2023-08-24T07:01:52;6.80;;;6.10;;
5507;SDS011;2776;51.046;6.772;2023-08-24T07:04:19;8.38;;;5.90;;
5507;SDS011;2776;51.046;6.772;2023-08-24T07:06:46;10.73;;;6.40;;
5507;SDS011;2776;51.046;6.772;2023-08-24T07:09:14;9.82;;;6.50;;
5507;SDS011;2776;51.046;6.772;2023-08-24T07:11:42;8.50;;;6.63;;
5507;SDS011;2776;51.046;6.772;2023-08-24T07:14:08;8.65;;;6.50;;
5507;SDS011;2776;51.046;6.772;2023-08-24T07:16:35;6.88;;;6.15;;
5507;SDS011;2776;51.046;6.772;2023-08-24T07:19:02;7.60;;;6.03;;
5507;SDS011;2776;51.046;6.772;2023-08-24T07:21:30;8.07;;;5.65;;
5507;SDS011;2776;51.046;6.772;2023-08-24T07:23:57;8.55;;;5.88;;
5507;SDS011;2776;51.046;6.772;2023-08-24T07:26:23;8.75;;;5.53;;
5507;SDS011;2776;51.046;6.772;2023-08-24T07:28:53;8.68;;;5.75;;
5507;SDS011;2776;51.046;6.772;2023-08-24T07:31:20;7.22;;;5.80;;
5507;SDS011;2776;51.046;6.772;2023-08-24T07:33:47;8.70;;;4.80;;
5507;SDS011;2776;51.046;6.772;2023-08-24T07:36:14;8.15;;;4.65;;
5507;SDS011;2776;51.046;6.772;2023-08-24T07:38:41;8.43;;;4.88;;
5507;SDS011;2776;51.046;6.772;2023-08-24T07:41:07;5.63;;;4.35;;
5507;SDS011;2776;51.046;6.772;2023-08-24T07:43:36;6.32;;;3.80;;
5507;SDS011;2776;51.046;6.772;2023-08-24T07:46:04;5.75;;;4.35;;
5507;SDS011;2776;51.046;6.772;2023-08-24T07:48:31;6.00;;;4.43;;
5507;SDS011;2776;51.046;6.772;2023-08-24T07:50:58;7.25;;;4.15;;
5507;SDS011;2776;51.046;6.772;2023-08-24T07:53:25;6.50;;;4.32;;
5507;SDS011;2776;51.046;6.772;2023-08-24T07:55:52;8.30;;;4.10;;
5507;SDS011;2776;51.046;6.772;2023-08-24T07:58:19;5.80;;;3.90;;
5507;SDS011;2776;51.046;6.772;2023-08-24T08:00:48;8.43;;;3.65;;
5507;SDS011;2776;51.046;6.772;2023-08-24T08:03:17;7.47;;;3.65;;
5507;SDS011;2776;51.046;6.772;2023-08-24T08:05:43;4.70;;;3.60;;
5507;SDS011;2776;51.046;6.772;2023-08-24T08:08:10;4.40;;;3.78;;
5507;SDS011;2776;51.046;6.772;2023-08-24T08:10:37;4.68;;;3.58;;
5507;SDS011;2776;51.046;6.772;2023-08-24T08:13:04;5.97;;;3.75;;
5507;SDS011;2776;51.046;6.772;2023-08-24T08:15:30;6.35;;;3.30;;
5507;SDS011;2776;51.046;6.772;2023-08-24T08:17:57;4.63;;;2.97;;
5507;SDS011;2776;51.046;6.772;2023-08-24T08:20:25;3.92;;;3.15;;
5507;SDS011;2776;51.046;6.772;2023-08-24T08:22:52;4.47;;;3.17;;
5507;SDS011;2776;51.046;6.772;2023-08-24T08:25:19;4.18;;;2.70;;
5507;SDS011;2776;51.046;6.772;2023-08-24T08:27:47;6.43;;;3.03;;
5507;SDS011;2776;51.046;6.772;2023-08-24T08:30:14;5.85;;;3.22;;
5507;SDS011;2776;51.046;6.772;2023-08-24T08:32:41;4.75;;;3.15;;
5507;SDS011;2776;51.046;6.772;2023-08-24T08:35:08;5.90;;;3.50;;
5507;SDS011;2776;51.046;6.772;2023-08-24T08:37:36;5.90;;;3.40;;
5507;SDS011;2776;51.046;6.772;2023-08-24T08:40:03;12.77;;;3.60;;
5507;SDS011;2776;51.046;6.772;2023-08-24T08:42:31;4.82;;;3.20;;
5507;SDS011;2776;51.046;6.772;2023-08-24T08:45:00;4.68;;;3.00;;
5507;SDS011;2776;51.046;6.772;2023-08-24T08:47:30;7.90;;;3.72;;
5507;SDS011;2776;51.046;6.772;2023-08-24T08:49:57;5.93;;;3.55;;
5507;SDS011;2776;51.046;6.772;2023-08-24T08:52:25;6.43;;;3.75;;
5507;SDS011;2776;51.046;6.772;2023-08-24T08:54:54;3.63;;;3.10;;
5507;SDS011;2776;51.046;6.772;2023-08-24T08:57:20;4.95;;;3.35;;
5507;SDS011;2776;51.046;6.772;2023-08-24T08:59:50;3.17;;;2.80;;
5507;SDS011;2776;51.046;6.772;2023-08-24T09:02:18;7.82;;;3.10;;
5507;SDS011;2776;51.046;6.772;2023-08-24T09:04:46;4.68;;;2.92;;
5507;SDS011;2776;51.046;6.772;2023-08-24T09:07:14;5.25;;;3.15;;
5507;SDS011;2776;51.046;6.772;2023-08-24T09:09:41;4.28;;;3.10;;
5507;SDS011;2776;51.046;6.772;2023-08-24T09:12:10;3.47;;;2.90;;
5507;SDS011;2776;51.046;6.772;2023-08-24T09:14:36;4.18;;;2.85;;
5507;SDS011;2776;51.046;6.772;2023-08-24T09:17:04;6.82;;;3.08;;
5507;SDS011;2776;51.046;6.772;2023-08-24T09:19:32;5.18;;;2.72;;
5507;SDS011;2776;51.046;6.772;2023-08-24T09:22:01;3.65;;;2.72;;
5507;SDS011;2776;51.046;6.772;2023-08-24T09:24:31;4.38;;;2.78;;
5507;SDS011;2776;51.046;6.772;2023-08-24T09:26:59;4.63;;;2.92;;
5507;SDS011;2776;51.046;6.772;2023-08-24T09:29:27;4.75;;;3.03;;
5507;SDS011;2776;51.046;6.772;2023-08-24T09:32:04;4.70;;;2.70;;
5507;SDS011;2776;51.046;6.772;2023-08-24T09:34:35;5.82;;;2.45;;
5507;SDS011;2776;51.046;6.772;2023-08-24T09:37:03;6.28;;;2.60;;
5507;SDS011;2776;51.046;6.772;2023-08-24T09:39:30;4.28;;;2.50;;
5507;SDS011;2776;51.046;6.772;2023-08-24T09:42:00;4.43;;;2.40;;
5507;SDS011;2776;51.046;6.772;2023-08-24T09:44:29;5.30;;;2.55;;
5507;SDS011;2776;51.046;6.772;2023-08-24T09:46:56;3.25;;;2.67;;
5507;SDS011;2776;51.046;6.772;2023-08-24T09:49:23;2.60;;;2.28;;
5507;SDS011;2776;51.046;6.772;2023-08-24T09:51:51;5.05;;;2.50;;
5507;SDS011;2776;51.046;6.772;2023-08-24T09:54:21;5.20;;;2.90;;
5507;SDS011;2776;51.046;6.772;2023-08-24T09:56:54;3.33;;;2.13;;
5507;SDS011;2776;51.046;6.772;2023-08-24T09:59:21;4.22;;;2.50;;
5507;SDS011;2776;51.046;6.772;2023-08-24T10:01:51;2.70;;;2.30;;
5507;SDS011;2776;51.046;6.772;2023-08-24T10:04:22;3.00;;;2.40;;
5507;SDS011;2776;51.046;6.772;2023-08-24T10:06:51;2.95;;;2.28;;
5507;SDS011;2776;51.046;6.772;2023-08-24T10:09:21;3.65;;;2.33;;
5507;SDS011;2776;51.046;6.772;2023-08-24T10:11:52;3.35;;;2.25;;
5507;SDS011;2776;51.046;6.772;2023-08-24T10:14:24;3.20;;;2.50;;
5507;SDS011;2776;51.046;6.772;2023-08-24T10:16:58;5.63;;;2.50;;
5507;SDS011;2776;51.046;6.772;2023-08-24T10:19:25;4.15;;;2.38;;
5507;SDS011;2776;51.046;6.772;2023-08-24T10:21:53;3.50;;;2.55;;
5507;SDS011;2776;51.046;6.772;2023-08-24T10:24:23;4.28;;;2.20;;
5507;SDS011;2776;51.046;6.772;2023-08-24T10:26:50;5.82;;;2.42;;
5507;SDS011;2776;51.046;6.772;2023-08-24T10:29:18;5.10;;;2.50;;
5507;SDS011;2776;51.046;6.772;2023-08-24T10:31:46;3.38;;;2.40;;
5507;SDS011;2776;51.046;6.772;2023-08-24T10:34:16;5.68;;;2.50;;
5507;SDS011;2776;51.046;6.772;2023-08-24T10:36:43;6.18;;;2.40;;
5507;SDS011;2776;51.046;6.772;2023-08-24T10:39:14;7.30;;;2.88;;
5507;SDS011;2776;51.046;6.772;2023-08-24T10:41:47;8.27;;;2.70;;
5507;SDS011;2776;51.046;6.772;2023-08-24T10:44:22;5.20;;;2.50;;
5507;SDS011;2776;51.046;6.772;2023-08-24T10:49:41;3.42;;;2.47;;
5507;SDS011;2776;51.046;6.772;2023-08-24T10:54:57;4.53;;;2.17;;
5507;SDS011;2776;51.046;6.772;2023-08-24T10:57:26;3.70;;;2.45;;
5507;SDS011;2776;51.046;6.772;2023-08-24T11:00:02;2.85;;;2.15;;
5507;SDS011;2776;51.046;6.772;2023-08-24T11:02:40;3.20;;;2.28;;
5507;SDS011;2776;51.046;6.772;2023-08-24T11:05:16;4.40;;;2.08;;
5507;SDS011;2776;51.046;6.772;2023-08-24T11:07:50;3.85;;;2.50;;
5507;SDS011;2776;51.046;6.772;2023-08-24T11:10:19;4.28;;;2.17;;
5507;SDS011;2776;51.046;6.772;2023-08-24T11:13:05;5.70;;;2.38;;
5507;SDS011;2776;51.046;6.772;2023-08-24T11:15:33;4.05;;;1.90;;
5507;SDS011;2776;51.046;6.772;2023-08-24T11:18:13;5.20;;;2.50;;
5507;SDS011;2776;51.046;6.772;2023-08-24T11:20:52;4.28;;;2.30;;
5507;SDS011;2776;51.046;6.772;2023-08-24T11:23:21;3.83;;;2.63;;
5507;SDS011;2776;51.046;6.772;2023-08-24T11:25:49;4.78;;;2.53;;
5507;SDS011;2776;51.046;6.772;2023-08-24T11:28:20;5.75;;;2.60;;
5507;SDS011;2776;51.046;6.772;2023-08-24T11:30:47;4.88;;;2.83;;
5507;SDS011;2776;51.046;6.772;2023-08-24T11:33:16;5.63;;;2.67;;
5507;SDS011;2776;51.046;6.772;2023-08-24T11:35:53;8.60;;;2.58;;
5507;SDS011;2776;51.046;6.772;2023-08-24T11:38:21;6.60;;;2.50;;
5507;SDS011;2776;51.046;6.772;2023-08-24T11:40:48;6.68;;;2.60;;
5507;SDS011;2776;51.046;6.772;2023-08-24T11:43:20;6.57;;;2.97;;
5507;SDS011;2776;51.046;6.772;2023-08-24T11:45:50;5.78;;;2.22;;
5507;SDS011;2776;51.046;6.772;2023-08-24T11:48:17;5.35;;;2.40;;
5507;SDS011;2776;51.046;6.772;2023-08-24T11:50:43;5.53;;;2.20;;
5507;SDS011;2776;51.046;6.772;2023-08-24T11:53:11;6.95;;;2.95;;
5507;SDS011;2776;51.046;6.772;2023-08-24T11:55:39;5.13;;;2.33;;
5507;SDS011;2776;51.046;6.772;2023-08-24T11:58:12;4.70;;;2.40;;
5507;SDS011;2776;51.046;6.772;2023-08-24T12:00:40;4.20;;;2.38;;
5507;SDS011;2776;51.046;6.772;2023-08-24T12:03:07;4.75;;;2.30;;
5507;SDS011;2776;51.046;6.772;2023-08-24T12:05:34;6.63;;;2.53;;
5507;SDS011;2776;51.046;6.772;2023-08-24T12:08:01;2.78;;;2.08;;
5507;SDS011;2776;51.046;6.772;2023-08-24T12:10:30;4.75;;;2.22;;
5507;SDS011;2776;51.046;6.772;2023-08-24T12:13:00;4.00;;;2.58;;
5507;SDS011;2776;51.046;6.772;2023-08-24T12:15:29;5.60;;;2.90;;
5507;SDS011;2776;51.046;6.772;2023-08-24T12:17:56;7.60;;;2.80;;
5507;SDS011;2776;51.046;6.772;2023-08-24T12:20:22;8.27;;;2.72;;
5507;SDS011;2776;51.046;6.772;2023-08-24T12:22:50;4.50;;;2.50;;
5507;SDS011;2776;51.046;6.772;2023-08-24T12:25:18;3.95;;;2.60;;
5507;SDS011;2776;51.046;6.772;2023-08-24T12:27:48;3.80;;;2.40;;
5507;SDS011;2776;51.046;6.772;2023-08-24T12:30:16;4.50;;;2.42;;
5507;SDS011;2776;51.046;6.772;2023-08-24T12:32:43;5.40;;;2.90;;
5507;SDS011;2776;51.046;6.772;2023-08-24T12:35:10;6.10;;;2.63;;
5507;SDS011;2776;51.046;6.772;2023-08-24T12:37:37;5.32;;;2.95;;
5507;SDS011;2776;51.046;6.772;2023-08-24T12:40:04;8.48;;;3.50;;
5507;SDS011;2776;51.046;6.772;2023-08-24T12:42:32;7.18;;;3.60;;
5507;SDS011;2776;51.046;6.772;2023-08-24T12:45:00;6.90;;;3.42;;
5507;SDS011;2776;51.046;6.772;2023-08-24T12:47:27;7.25;;;3.40;;
5507;SDS011;2776;51.046;6.772;2023-08-24T12:49:54;7.22;;;4.03;;
5507;SDS011;2776;51.046;6.772;2023-08-24T12:52:21;7.13;;;3.80;;
5507;SDS011;2776;51.046;6.772;2023-08-24T12:54:48;8.70;;;4.00;;
5507;SDS011;2776;51.046;6.772;2023-08-24T12:57:15;6.80;;;3.75;;
5507;SDS011;2776;51.046;6.772;2023-08-24T12:59:42;4.97;;;3.55;;
5507;SDS011;2776;51.046;6.772;2023-08-24T13:02:10;7.43;;;3.58;;
5507;SDS011;2776;51.046;6.772;2023-08-24T13:04:36;7.70;;;3.83;;
5507;SDS011;2776;51.046;6.772;2023-08-24T13:07:03;9.52;;;3.58;;
5507;SDS011;2776;51.046;6.772;2023-08-24T13:09:30;7.00;;;3.47;;
5507;SDS011;2776;51.046;6.772;2023-08-24T13:11:57;7.50;;;3.10;;
5507;SDS011;2776;51.046;6.772;2023-08-24T13:14:23;4.60;;;3.25;;
5507;SDS011;2776;51.046;6.772;2023-08-24T13:16:50;7.97;;;3.25;;
5507;SDS011;2776;51.046;6.772;2023-08-24T13:19:18;9.52;;;3.80;;
5507;SDS011;2776;51.046;6.772;2023-08-24T13:21:45;7.82;;;3.42;;
5507;SDS011;2776;51.046;6.772;2023-08-24T13:24:12;11.23;;;3.95;;
5507;SDS011;2776;51.046;6.772;2023-08-24T13:26:38;5.40;;;3.63;;
5507;SDS011;2776;51.046;6.772;2023-08-24T13:29:05;8.23;;;3.58;;
5507;SDS011;2776;51.046;6.772;2023-08-24T13:31:32;9.00;;;3.25;;
5507;SDS011;2776;51.046;6.772;2023-08-24T13:34:00;5.88;;;3.13;;
5507;SDS011;2776;51.046;6.772;2023-08-24T13:36:30;7.72;;;3.35;;
5507;SDS011;2776;51.046;6.772;2023-08-24T13:38:57;6.70;;;3.33;;
5507;SDS011;2776;51.046;6.772;2023-08-24T13:41:24;6.00;;;3.58;;
5507;SDS011;2776;51.046;6.772;2023-08-24T13:43:51;6.70;;;2.92;;
5507;SDS011;2776;51.046;6.772;2023-08-24T13:46:17;5.47;;;2.88;;
5507;SDS011;2776;51.046;6.772;2023-08-24T13:48:44;6.05;;;2.97;;
5507;SDS011;2776;51.046;6.772;2023-08-24T13:51:11;6.43;;;3.25;;
5507;SDS011;2776;51.046;6.772;2023-08-24T13:53:39;4.57;;;3.40;;
5507;SDS011;2776;51.046;6.772;2023-08-24T13:56:06;5.75;;;2.83;;
5507;SDS011;2776;51.046;6.772;2023-08-24T13:58:32;11.98;;;3.15;;
5507;SDS011;2776;51.046;6.772;2023-08-24T14:00:59;4.47;;;3.17;;
5507;SDS011;2776;51.046;6.772;2023-08-24T14:03:28;6.47;;;3.55;;
5507;SDS011;2776;51.046;6.772;2023-08-24T14:05:55;5.75;;;3.15;;
5507;SDS011;2776;51.046;6.772;2023-08-24T14:08:22;5.40;;;3.05;;
5507;SDS011;2776;51.046;6.772;2023-08-24T14:10:51;5.05;;;2.17;;
5507;SDS011;2776;51.046;6.772;2023-08-24T14:13:17;4.38;;;2.63;;
5507;SDS011;2776;51.046;6.772;2023-08-24T14:15:45;6.60;;;2.92;;
5507;SDS011;2776;51.046;6.772;2023-08-24T14:18:13;5.65;;;2.78;;
5507;SDS011;2776;51.046;6.772;2023-08-24T14:20:40;6.18;;;2.80;;
5507;SDS011;2776;51.046;6.772;2023-08-24T14:23:07;4.55;;;2.97;;
5507;SDS011;2776;51.046;6.772;2023-08-24T14:25:33;4.05;;;2.72;;
5507;SDS011;2776;51.046;6.772;2023-08-24T14:28:01;4.55;;;2.60;;
5507;SDS011;2776;51.046;6.772;2023-08-24T14:30:28;3.97;;;2.25;;
5507;SDS011;2776;51.046;6.772;2023-08-24T14:32:55;4.00;;;2.58;;
5507;SDS011;2776;51.046;6.772;2023-08-24T14:35:22;5.35;;;2.60;;
5507;SDS011;2776;51.046;6.772;2023-08-24T14:37:48;5.57;;;2.58;;
5507;SDS011;2776;51.046;6.772;2023-08-24T14:40:15;3.50;;;2.65;;
5507;SDS011;2776;51.046;6.772;2023-08-24T14:42:44;4.95;;;2.47;;
5507;SDS011;2776;51.046;6.772;2023-08-24T14:45:15;5.30;;;2.70;;
5507;SDS011;2776;51.046;6.772;2023-08-24T14:47:42;7.45;;;2.72;;
5507;SDS011;2776;51.046;6.772;2023-08-24T14:50:09;6.70;;;2.88;;
5507;SDS011;2776;51.046;6.772;2023-08-24T14:52:36;4.18;;;2.60;;
5507;SDS011;2776;51.046;6.772;2023-08-24T14:55:03;6.45;;;3.17;;
5507;SDS011;2776;51.046;6.772;2023-08-24T14:57:30;4.60;;;2.30;;
5507;SDS011;2776;51.046;6.772;2023-08-24T14:59:57;3.30;;;2.45;;
5507;SDS011;2776;51.046;6.772;2023-08-24T15:02:25;4.88;;;2.15;;
5507;SDS011;2776;51.046;6.772;2023-08-24T15:04:52;4.32;;;2.50;;
5507;SDS011;2776;51.046;6.772;2023-08-24T15:07:18;5.60;;;3.63;;
5507;SDS011;2776;51.046;6.772;2023-08-24T15:09:45;4.70;;;2.90;;
5507;SDS011;2776;51.046;6.772;2023-08-24T15:12:12;4.15;;;2.97;;
5507;SDS011;2776;51.046;6.772;2023-08-24T15:14:41;7.15;;;2.35;;
5507;SDS011;2776;51.046;6.772;2023-08-24T15:17:23;4.30;;;2.47;;
5507;SDS011;2776;51.046;6.772;2023-08-24T15:19:51;4.78;;;2.17;;
5507;SDS011;2776;51.046;6.772;2023-08-24T15:22:17;4.68;;;2.38;;
5507;SDS011;2776;51.046;6.772;2023-08-24T15:24:44;5.07;;;2.50;;